createdAt,value
2018-06-23T00:00:57.059Z,945.43
2018-06-23T00:01:57.059Z,945.46
2018-06-23T00:02:57.056Z,945.41
2018-06-23T00:03:57.056Z,945.43
2018-06-23T00:04:57.053Z,945.43
2018-06-23T00:05:57.052Z,945.41
2018-06-23T00:06:57.052Z,945.39
2018-06-23T00:07:57.049Z,945.40
2018-06-23T00:08:57.046Z,945.40
2018-06-23T00:09:57.045Z,945.40
2018-06-23T00:10:57.044Z,945.38
2018-06-23T00:11:57.044Z,945.37
2018-06-23T00:12:57.042Z,945.36
2018-06-23T00:13:57.040Z,945.39
2018-06-23T00:14:57.040Z,945.38
2018-06-23T00:15:57.037Z,945.37
2018-06-23T00:16:57.034Z,945.38
2018-06-23T00:17:57.034Z,945.38
2018-06-23T00:18:57.033Z,945.35
2018-06-23T00:19:57.031Z,945.37
2018-06-23T00:20:57.028Z,945.37
2018-06-23T00:21:57.035Z,945.37
2018-06-23T00:22:57.026Z,945.41
2018-06-23T00:23:57.024Z,945.38
2018-06-23T00:24:57.021Z,945.36
2018-06-23T00:25:57.020Z,945.36
2018-06-23T00:26:57.020Z,945.39
2018-06-23T00:27:57.018Z,945.38
2018-06-23T00:28:57.014Z,945.39
2018-06-23T00:29:57.013Z,945.36
2018-06-23T00:30:57.012Z,945.38
2018-06-23T00:31:57.010Z,945.39
2018-06-23T00:32:57.009Z,945.38
2018-06-23T00:33:57.007Z,945.39
2018-06-23T00:34:57.005Z,945.36
2018-06-23T00:35:57.003Z,945.39
2018-06-23T00:36:57.000Z,945.37
2018-06-23T00:37:56.999Z,945.33
2018-06-23T00:38:56.997Z,945.36
2018-06-23T00:39:56.995Z,945.38
2018-06-23T00:40:56.992Z,945.36
2018-06-23T00:41:56.991Z,945.36
2018-06-23T00:42:56.991Z,945.36
2018-06-23T00:43:56.987Z,945.34
2018-06-23T00:44:56.987Z,945.31
2018-06-23T00:45:56.985Z,945.29
2018-06-23T00:46:56.983Z,945.30
2018-06-23T00:47:56.980Z,945.32
2018-06-23T00:48:56.979Z,945.36
2018-06-23T00:49:56.977Z,945.33
2018-06-23T00:50:56.976Z,945.35
2018-06-23T00:51:56.974Z,945.34
2018-06-23T00:52:56.970Z,945.37
2018-06-23T00:53:56.970Z,945.32
2018-06-23T00:54:56.968Z,945.36
2018-06-23T00:55:56.967Z,945.33
2018-06-23T00:56:56.964Z,945.35
2018-06-23T00:57:56.962Z,945.35
2018-06-23T00:58:56.961Z,945.35
2018-06-23T00:59:56.962Z,945.30
2018-06-23T01:00:56.957Z,945.28
2018-06-23T01:01:56.960Z,945.30
2018-06-23T01:02:56.953Z,945.28
2018-06-23T01:03:56.952Z,945.33
2018-06-23T01:04:56.953Z,945.30
2018-06-23T01:05:56.947Z,945.31
2018-06-23T01:06:56.946Z,945.27
2018-06-23T01:07:56.944Z,945.27
2018-06-23T01:08:56.945Z,945.22
2018-06-23T01:09:56.941Z,945.23
2018-06-23T01:10:56.940Z,945.24
2018-06-23T01:11:56.937Z,945.19
2018-06-23T01:12:56.936Z,945.16
2018-06-23T01:13:56.933Z,945.19
2018-06-23T01:14:56.933Z,945.21
2018-06-23T01:15:56.930Z,945.19
2018-06-23T01:16:56.928Z,945.20
2018-06-23T01:17:56.926Z,945.22
2018-06-23T01:18:56.925Z,945.20
2018-06-23T01:19:56.922Z,945.20
2018-06-23T01:20:56.920Z,945.17
2018-06-23T01:21:56.919Z,945.18
2018-06-23T01:22:56.917Z,945.21
2018-06-23T01:23:56.915Z,945.19
2018-06-23T01:24:56.912Z,945.18
2018-06-23T01:25:56.911Z,945.16
2018-06-23T01:26:56.909Z,945.15
2018-06-23T01:27:56.907Z,945.12
2018-06-23T01:28:56.905Z,945.12
2018-06-23T01:29:56.903Z,945.10
2018-06-23T01:30:56.901Z,945.08
2018-06-23T01:31:56.901Z,945.14
2018-06-23T01:32:56.898Z,945.08
2018-06-23T01:33:56.895Z,945.12
2018-06-23T01:34:56.896Z,945.16
2018-06-23T01:35:56.892Z,945.11
2018-06-23T01:36:56.890Z,945.13
2018-06-23T01:37:56.888Z,945.11
2018-06-23T01:38:56.886Z,945.10
2018-06-23T01:39:56.884Z,945.13
2018-06-23T01:40:56.881Z,945.08
2018-06-23T01:41:56.880Z,945.11
2018-06-23T01:42:56.877Z,945.07
2018-06-23T01:43:56.876Z,945.07
2018-06-23T01:44:56.872Z,945.07
2018-06-23T01:45:56.871Z,945.05
2018-06-23T01:46:56.869Z,945.06
2018-06-23T01:47:56.867Z,945.04
2018-06-23T01:48:56.864Z,945.02
2018-06-23T01:49:56.863Z,945.02
2018-06-23T01:50:56.861Z,945.01
2018-06-23T01:51:56.861Z,944.99
2018-06-23T01:52:56.855Z,945.03
2018-06-23T01:53:56.855Z,945.03
2018-06-23T01:54:56.853Z,945.01
2018-06-23T01:55:56.850Z,945.01
2018-06-23T01:56:56.848Z,945.01
2018-06-23T01:57:56.846Z,945.03
2018-06-23T01:58:56.844Z,944.98
2018-06-23T01:59:56.849Z,945.02
2018-06-23T02:00:56.839Z,945.01
2018-06-23T02:01:56.838Z,944.97
2018-06-23T02:02:56.835Z,944.97
2018-06-23T02:03:56.834Z,944.98
2018-06-23T02:04:56.840Z,944.97
2018-06-23T02:05:56.830Z,944.97
2018-06-23T02:06:56.827Z,944.94
2018-06-23T02:07:56.825Z,944.96
2018-06-23T02:08:56.822Z,944.94
2018-06-23T02:09:56.820Z,944.94
2018-06-23T02:10:56.819Z,944.91
2018-06-23T02:11:56.817Z,944.94
2018-06-23T02:12:56.813Z,944.93
2018-06-23T02:13:56.812Z,944.96
2018-06-23T02:14:56.811Z,944.94
2018-06-23T02:15:56.812Z,944.96
2018-06-23T02:16:56.806Z,944.97
2018-06-23T02:17:56.803Z,944.93
2018-06-23T02:18:56.801Z,944.91
2018-06-23T02:19:56.801Z,944.95
2018-06-23T02:20:56.796Z,944.95
2018-06-23T02:21:56.796Z,944.91
2018-06-23T02:22:56.794Z,944.94
2018-06-23T02:23:56.792Z,944.94
2018-06-23T02:24:56.788Z,944.95
2018-06-23T02:25:56.787Z,944.96
2018-06-23T02:26:56.785Z,944.96
2018-06-23T02:27:56.787Z,944.95
2018-06-23T02:28:56.781Z,944.96
2018-06-23T02:29:56.778Z,944.96
2018-06-23T02:30:56.777Z,944.94
2018-06-23T02:31:56.776Z,944.96
2018-06-23T02:32:56.772Z,944.96
2018-06-23T02:33:56.772Z,944.90
2018-06-23T02:34:56.769Z,944.92
2018-06-23T02:35:56.768Z,944.91
2018-06-23T02:36:56.764Z,944.92
2018-06-23T02:37:56.762Z,944.91
2018-06-23T02:38:56.762Z,944.89
2018-06-23T02:39:56.759Z,944.86
2018-06-23T02:40:56.756Z,944.84
2018-06-23T02:41:56.753Z,944.83
2018-06-23T02:42:56.754Z,944.85
2018-06-23T02:43:56.751Z,944.86
2018-06-23T02:44:56.748Z,944.85
2018-06-23T02:45:56.745Z,944.82
2018-06-23T02:46:56.744Z,944.83
2018-06-23T02:47:56.745Z,944.82
2018-06-23T02:48:56.741Z,944.81
2018-06-23T02:49:56.736Z,944.84
2018-06-23T02:50:56.735Z,944.81
2018-06-23T02:51:56.733Z,944.79
2018-06-23T02:52:56.731Z,944.81
2018-06-23T02:53:56.727Z,944.79
2018-06-23T02:54:56.727Z,944.79
2018-06-23T02:55:56.725Z,944.76
2018-06-23T02:56:56.721Z,944.72
2018-06-23T02:57:56.720Z,944.76
2018-06-23T02:58:56.716Z,944.71
2018-06-23T02:59:56.718Z,944.71
2018-06-23T03:00:56.717Z,944.74
2018-06-23T03:01:56.711Z,944.73
2018-06-23T03:02:56.708Z,944.73
2018-06-23T03:03:56.708Z,944.71
2018-06-23T03:04:56.704Z,944.74
2018-06-23T03:05:56.702Z,944.73
2018-06-23T03:06:56.699Z,944.75
2018-06-23T03:07:56.697Z,944.72
2018-06-23T03:08:56.696Z,944.70
2018-06-23T03:09:56.695Z,944.69
2018-06-23T03:10:56.691Z,944.71
2018-06-23T03:11:56.688Z,944.65
2018-06-23T03:12:56.685Z,944.71
2018-06-23T03:13:56.687Z,944.66
2018-06-23T03:14:56.682Z,944.69
2018-06-23T03:15:56.680Z,944.68
2018-06-23T03:16:56.678Z,944.65
2018-06-23T03:17:56.674Z,944.66
2018-06-23T03:18:56.673Z,944.71
2018-06-23T03:19:56.671Z,944.75
2018-06-23T03:20:56.668Z,944.72
2018-06-23T03:21:56.666Z,944.78
2018-06-23T03:22:56.663Z,944.76
2018-06-23T03:23:56.661Z,944.79
2018-06-23T03:24:56.659Z,944.80
2018-06-23T03:25:56.656Z,944.78
2018-06-23T03:26:56.653Z,944.78
2018-06-23T03:27:56.652Z,944.79
2018-06-23T03:28:56.649Z,944.76
2018-06-23T03:29:56.650Z,944.84
2018-06-23T03:30:56.645Z,944.85
2018-06-23T03:31:56.644Z,944.82
2018-06-23T03:32:56.641Z,944.85
2018-06-23T03:33:56.638Z,944.80
2018-06-23T03:34:56.636Z,944.81
2018-06-23T03:35:56.634Z,944.82
2018-06-23T03:36:56.631Z,944.83
2018-06-23T03:37:56.627Z,944.83
2018-06-23T03:38:56.627Z,944.84
2018-06-23T03:39:56.624Z,944.83
2018-06-23T03:40:56.621Z,944.84
2018-06-23T03:41:56.618Z,944.84
2018-06-23T03:42:56.616Z,944.85
2018-06-23T03:43:56.615Z,944.87
2018-06-23T03:44:56.611Z,944.87
2018-06-23T03:45:56.610Z,944.86
2018-06-23T03:46:56.606Z,944.87
2018-06-23T03:47:56.622Z,944.85
2018-06-23T03:48:56.601Z,944.82
2018-06-23T03:49:56.600Z,944.82
2018-06-23T03:50:56.598Z,944.80
2018-06-23T03:51:56.597Z,944.83
2018-06-23T03:52:56.591Z,944.80
2018-06-23T03:53:56.591Z,944.81
2018-06-23T03:54:56.588Z,944.79
2018-06-23T03:55:56.585Z,944.82
2018-06-23T03:56:56.583Z,944.78
2018-06-23T03:57:56.583Z,944.75
2018-06-23T03:58:56.578Z,944.79
2018-06-23T03:59:56.578Z,944.77
2018-06-23T04:00:56.573Z,944.77
2018-06-23T04:01:56.570Z,944.75
2018-06-23T04:02:56.567Z,944.79
2018-06-23T04:03:56.565Z,944.80
2018-06-23T04:04:56.561Z,944.80
2018-06-23T04:05:56.560Z,944.81
2018-06-23T04:06:56.558Z,944.83
2018-06-23T04:07:56.556Z,944.81
2018-06-23T04:08:56.551Z,944.83
2018-06-23T04:09:56.548Z,944.82
2018-06-23T04:10:56.547Z,944.79
2018-06-23T04:11:56.545Z,944.84
2018-06-23T04:12:56.542Z,944.85
2018-06-23T04:13:56.540Z,944.89
2018-06-23T04:14:56.537Z,944.87
2018-06-23T04:15:56.533Z,944.90
2018-06-23T04:16:56.532Z,944.89
2018-06-23T04:17:56.528Z,944.92
2018-06-23T04:18:56.526Z,944.90
2018-06-23T04:19:56.525Z,944.86
2018-06-23T04:20:56.521Z,944.94
2018-06-23T04:21:56.517Z,944.90
2018-06-23T04:22:56.515Z,944.93
2018-06-23T04:23:56.514Z,944.93
2018-06-23T04:24:56.511Z,944.95
2018-06-23T04:25:56.510Z,944.92
2018-06-23T04:26:56.509Z,944.93
2018-06-23T04:27:56.503Z,944.89
2018-06-23T04:28:56.499Z,944.93
2018-06-23T04:29:56.497Z,944.88
2018-06-23T04:30:56.496Z,944.89
2018-06-23T04:31:56.493Z,944.89
2018-06-23T04:32:56.490Z,944.94
2018-06-23T04:33:56.488Z,944.89
2018-06-23T04:34:56.486Z,944.91
2018-06-23T04:35:56.483Z,944.87
2018-06-23T04:36:56.479Z,944.96
2018-06-23T04:37:56.477Z,944.91
2018-06-23T04:38:56.475Z,944.98
2018-06-23T04:39:56.473Z,944.95
2018-06-23T04:40:56.473Z,945.01
2018-06-23T04:41:56.467Z,944.99
2018-06-23T04:42:56.464Z,944.99
2018-06-23T04:43:56.463Z,944.93
2018-06-23T04:44:56.458Z,944.96
2018-06-23T04:45:56.457Z,944.93
2018-06-23T04:46:56.453Z,944.91
2018-06-23T04:47:56.453Z,944.93
2018-06-23T04:48:56.449Z,944.94
2018-06-23T04:49:56.448Z,944.98
2018-06-23T04:50:56.444Z,944.92
2018-06-23T04:51:56.442Z,944.97
2018-06-23T04:52:56.444Z,945.01
2018-06-23T04:53:56.437Z,944.96
2018-06-23T04:54:56.435Z,945.00
2018-06-23T04:55:56.433Z,945.01
2018-06-23T04:56:56.432Z,945.00
2018-06-23T04:57:56.435Z,945.03
2018-06-23T04:58:56.424Z,945.02
2018-06-23T04:59:56.422Z,945.01
2018-06-23T05:00:56.419Z,945.07
2018-06-23T05:01:56.418Z,945.09
2018-06-23T05:02:56.415Z,945.09
2018-06-23T05:03:56.414Z,945.10
2018-06-23T05:04:56.410Z,945.12
2018-06-23T05:05:56.408Z,945.15
2018-06-23T05:06:56.406Z,945.14
2018-06-23T05:07:56.407Z,945.11
2018-06-23T05:08:56.401Z,945.15
2018-06-23T05:09:56.399Z,945.11
2018-06-23T05:10:56.397Z,945.14
2018-06-23T05:11:56.395Z,945.12
2018-06-23T05:12:56.391Z,945.16
2018-06-23T05:13:56.390Z,945.16
2018-06-23T05:14:56.386Z,945.15
2018-06-23T05:15:56.385Z,945.17
2018-06-23T05:16:56.383Z,945.15
2018-06-23T05:17:56.381Z,945.14
2018-06-23T05:18:56.378Z,945.13
2018-06-23T05:19:56.376Z,945.15
2018-06-23T05:20:56.374Z,945.18
2018-06-23T05:21:56.372Z,945.19
2018-06-23T05:22:56.372Z,945.18
2018-06-23T05:23:56.368Z,945.21
2018-06-23T05:24:56.364Z,945.20
2018-06-23T05:25:56.423Z,945.16
2018-06-23T05:26:56.361Z,945.17
2018-06-23T05:27:56.361Z,945.15
2018-06-23T05:28:56.355Z,945.14
2018-06-23T05:29:56.359Z,945.15
2018-06-23T05:30:56.354Z,945.15
2018-06-23T05:31:56.352Z,945.14
2018-06-23T05:32:56.349Z,945.14
2018-06-23T05:33:56.349Z,945.15
2018-06-23T05:34:56.344Z,945.14
2018-06-23T05:35:56.342Z,945.17
2018-06-23T05:36:56.338Z,945.16
2018-06-23T05:37:56.337Z,945.14
2018-06-23T05:38:56.336Z,945.19
2018-06-23T05:39:56.333Z,945.16
2018-06-23T05:40:56.332Z,945.22
2018-06-23T05:41:56.330Z,945.17
2018-06-23T05:42:56.328Z,945.16
2018-06-23T05:43:56.326Z,945.13
2018-06-23T05:44:56.323Z,945.16
2018-06-23T05:45:56.326Z,945.16
2018-06-23T05:46:56.320Z,945.18
2018-06-23T05:47:56.317Z,945.17
2018-06-23T05:48:56.316Z,945.17
2018-06-23T05:49:56.312Z,945.14
2018-06-23T05:50:56.312Z,945.13
2018-06-23T05:51:56.315Z,945.19
2018-06-23T05:52:56.308Z,945.15
2018-06-23T05:53:56.306Z,945.15
2018-06-23T05:54:56.304Z,945.10
2018-06-23T05:55:56.303Z,945.14
2018-06-23T05:56:56.300Z,945.13
2018-06-23T05:57:56.298Z,945.15
2018-06-23T05:58:56.296Z,945.15
2018-06-23T05:59:56.295Z,945.14
2018-06-23T06:00:56.291Z,945.16
2018-06-23T06:01:56.289Z,945.17
2018-06-23T06:02:56.292Z,945.18
2018-06-23T06:03:56.293Z,945.17
2018-06-23T06:04:56.284Z,945.14
2018-06-23T06:05:56.286Z,945.16
2018-06-23T06:06:56.284Z,945.18
2018-06-23T06:07:56.281Z,945.15
2018-06-23T06:08:56.279Z,945.16
2018-06-23T06:09:56.277Z,945.16
2018-06-23T06:10:56.275Z,945.20
2018-06-23T06:11:56.274Z,945.18
2018-06-23T06:12:56.326Z,945.19
2018-06-23T06:13:56.271Z,945.20
2018-06-23T06:14:56.269Z,945.16
2018-06-23T06:15:56.268Z,945.23
2018-06-23T06:16:56.266Z,945.20
2018-06-23T06:17:56.264Z,945.20
2018-06-23T06:18:56.262Z,945.23
2018-06-23T06:19:56.261Z,945.25
2018-06-23T06:20:56.259Z,945.23
2018-06-23T06:21:56.259Z,945.27
2018-06-23T06:22:56.559Z,945.23
2018-06-23T06:23:56.257Z,945.23
2018-06-23T06:24:56.258Z,945.24
2018-06-23T06:25:56.254Z,945.24
2018-06-23T06:26:56.253Z,945.27
2018-06-23T06:27:56.252Z,945.25
2018-06-23T06:28:56.250Z,945.22
2018-06-23T06:29:56.249Z,945.21
2018-06-23T06:30:56.248Z,945.17
2018-06-23T06:31:56.248Z,945.16
2018-06-23T06:32:56.245Z,945.17
2018-06-23T06:33:56.245Z,945.14
2018-06-23T06:34:56.244Z,945.11
2018-06-23T06:35:56.243Z,945.11
2018-06-23T06:36:56.242Z,945.12
2018-06-23T06:37:56.534Z,945.08
2018-06-23T06:38:56.239Z,945.09
2018-06-23T06:39:56.239Z,945.06
2018-06-23T06:40:56.238Z,945.09
2018-06-23T06:41:56.237Z,945.13
2018-06-23T06:42:56.237Z,945.15
2018-06-23T06:43:56.234Z,945.14
2018-06-23T06:44:56.233Z,945.13
2018-06-23T06:45:56.232Z,945.10
2018-06-23T06:46:56.232Z,945.13
2018-06-23T06:47:56.231Z,945.14
2018-06-23T06:48:56.230Z,945.17
2018-06-23T06:49:56.229Z,945.20
2018-06-23T06:50:56.303Z,945.13
2018-06-23T06:51:56.232Z,945.17
2018-06-23T06:52:56.225Z,945.20
2018-06-23T06:53:56.226Z,945.18
2018-06-23T06:54:56.224Z,945.18
2018-06-23T06:55:56.227Z,945.16
2018-06-23T06:56:56.223Z,945.14
2018-06-23T06:57:56.222Z,945.16
2018-06-23T06:58:56.223Z,945.19
2018-06-23T06:59:56.221Z,945.21
2018-06-23T07:00:56.220Z,945.17
2018-06-23T07:01:56.219Z,945.20
2018-06-23T07:02:56.220Z,945.18
2018-06-23T07:03:56.219Z,945.14
2018-06-23T07:04:56.219Z,945.14
2018-06-23T07:05:56.220Z,945.11
2018-06-23T07:06:56.218Z,945.14
2018-06-23T07:07:56.227Z,945.12
2018-06-23T07:08:56.294Z,945.14
2018-06-23T07:09:56.216Z,945.10
2018-06-23T07:10:56.219Z,945.11
2018-06-23T07:11:56.217Z,945.09
2018-06-23T07:12:56.214Z,945.10
2018-06-23T07:13:56.216Z,945.08
2018-06-23T07:14:56.216Z,945.09
2018-06-23T07:15:56.215Z,945.15
2018-06-23T07:16:56.217Z,945.15
2018-06-23T07:17:56.215Z,945.10
2018-06-23T07:18:56.224Z,945.10
2018-06-23T07:19:56.216Z,945.13
2018-06-23T07:20:56.215Z,945.06
2018-06-23T07:21:56.215Z,945.03
2018-06-23T07:22:56.215Z,945.05
2018-06-23T07:23:56.295Z,945.03
2018-06-23T07:24:56.220Z,945.05
2018-06-23T07:25:56.216Z,945.05
2018-06-23T07:26:56.264Z,945.09
2018-06-23T07:27:56.221Z,945.09
2018-06-23T07:28:56.216Z,945.09
2018-06-23T07:29:56.217Z,945.02
2018-06-23T07:30:56.217Z,945.05
2018-06-23T07:31:56.217Z,945.05
2018-06-23T07:32:56.217Z,945.05
2018-06-23T07:33:56.218Z,945.10
2018-06-23T07:34:56.303Z,945.08
2018-06-23T07:35:56.221Z,945.06
2018-06-23T07:36:56.221Z,945.05
2018-06-23T07:37:56.222Z,945.10
2018-06-23T07:38:56.224Z,945.10
2018-06-23T07:39:56.225Z,945.14
2018-06-23T07:40:56.226Z,945.10
2018-06-23T07:41:56.228Z,945.23
2018-06-23T07:42:56.230Z,945.18
2018-06-23T07:43:56.232Z,945.15
2018-06-23T07:44:56.231Z,945.10
2018-06-23T07:45:56.234Z,945.18
2018-06-23T07:46:56.237Z,945.19
2018-06-23T07:47:56.239Z,945.20
2018-06-23T07:48:56.240Z,945.22
2018-06-23T07:49:56.244Z,945.18
2018-06-23T07:50:56.247Z,945.14
2018-06-23T07:51:56.575Z,945.13
2018-06-23T07:52:56.251Z,945.16
2018-06-23T07:53:56.254Z,945.19
2018-06-23T07:54:56.260Z,945.19
2018-06-23T07:55:56.261Z,945.28
2018-06-23T07:56:56.263Z,945.15
2018-06-23T07:57:56.266Z,945.13
2018-06-23T07:58:56.269Z,945.13
2018-06-23T07:59:56.273Z,945.12
2018-06-23T08:00:56.275Z,945.10
2018-06-23T08:01:56.280Z,945.26
2018-06-23T08:02:56.283Z,945.34
2018-06-23T08:03:56.286Z,945.31
2018-06-23T08:04:56.289Z,945.38
2018-06-23T08:05:56.315Z,945.25
2018-06-23T08:06:56.300Z,945.33
2018-06-23T08:07:56.306Z,945.37
2018-06-23T08:08:56.309Z,945.39
2018-06-23T08:09:56.316Z,945.31
2018-06-23T08:10:56.324Z,945.36
2018-06-23T08:11:56.329Z,945.34
2018-06-23T08:12:56.334Z,945.40
2018-06-23T08:13:56.341Z,945.31
2018-06-23T08:14:56.348Z,945.37
2018-06-23T08:15:56.357Z,945.30
2018-06-23T08:16:56.362Z,945.24
2018-06-23T08:17:56.369Z,945.30
2018-06-23T08:18:56.379Z,945.31
2018-06-23T08:19:56.386Z,945.24
2018-06-23T08:20:56.392Z,945.39
2018-06-23T08:21:56.400Z,945.23
2018-06-23T08:22:56.408Z,945.30
2018-06-23T08:23:56.416Z,945.31
2018-06-23T08:24:56.429Z,945.34
2018-06-23T08:25:56.429Z,945.32
2018-06-23T08:26:56.438Z,945.37
2018-06-23T08:27:56.445Z,945.34
2018-06-23T08:28:56.454Z,945.37
2018-06-23T08:29:56.463Z,945.40
2018-06-23T08:30:56.472Z,945.19
2018-06-23T08:31:56.485Z,945.42
2018-06-23T08:32:56.487Z,945.13
2018-06-23T08:33:56.498Z,945.18
2018-06-23T08:34:56.503Z,945.31
2018-06-23T08:35:56.512Z,945.33
2018-06-23T08:36:56.518Z,945.35
2018-06-23T08:37:56.527Z,945.38
2018-06-23T08:38:56.536Z,945.37
2018-06-23T08:39:56.544Z,945.34
2018-06-23T08:40:56.551Z,945.39
2018-06-23T08:41:56.562Z,945.37
2018-06-23T08:42:56.664Z,945.40
2018-06-23T08:43:56.579Z,945.42
2018-06-23T08:44:56.611Z,945.44
2018-06-23T08:45:56.598Z,945.42
2018-06-23T08:46:56.608Z,945.42
2018-06-23T08:47:56.638Z,945.40
2018-06-23T08:48:56.627Z,945.43
2018-06-23T08:49:56.639Z,945.44
2018-06-23T08:50:56.650Z,945.42
2018-06-23T08:51:56.663Z,945.43
2018-06-23T08:52:56.785Z,945.30
2018-06-23T08:53:56.682Z,945.31
2018-06-23T08:54:56.693Z,945.34
2018-06-23T08:55:56.705Z,945.37
2018-06-23T08:56:56.738Z,945.31
2018-06-23T08:57:56.724Z,945.25
2018-06-23T08:58:56.787Z,945.28
2018-06-23T08:59:56.744Z,945.31
2018-06-23T09:00:57.051Z,945.30
2018-06-23T09:01:56.763Z,945.30
2018-06-23T09:02:56.774Z,945.32
2018-06-23T09:03:56.785Z,945.30
2018-06-23T09:04:56.794Z,945.30
2018-06-23T09:05:56.805Z,945.34
2018-06-23T09:06:56.822Z,945.24
2018-06-23T09:07:56.824Z,945.10
2018-06-23T09:08:56.836Z,945.22
2018-06-23T09:09:56.848Z,945.20
2018-06-23T09:10:56.854Z,945.07
2018-06-23T09:11:56.867Z,945.09
2018-06-23T09:12:56.875Z,945.14
2018-06-23T09:13:56.886Z,945.04
2018-06-23T09:14:56.896Z,944.98
2018-06-23T09:15:56.906Z,944.95
2018-06-23T09:16:56.916Z,944.94
2018-06-23T09:17:56.922Z,944.98
2018-06-23T09:18:56.930Z,944.94
2018-06-23T09:19:57.013Z,944.96
2018-06-23T09:20:56.945Z,944.93
2018-06-23T09:21:56.953Z,945.03
2018-06-23T09:22:56.960Z,945.00
2018-06-23T09:23:56.967Z,945.04
2018-06-23T09:24:56.975Z,945.05
2018-06-23T09:25:57.035Z,945.02
2018-06-23T09:26:56.991Z,944.93
2018-06-23T09:27:56.999Z,944.96
2018-06-23T09:28:57.007Z,944.92
2018-06-23T09:29:57.017Z,944.91
2018-06-23T09:30:57.022Z,945.00
2018-06-23T09:31:57.029Z,944.96
2018-06-23T09:32:57.035Z,945.04
2018-06-23T09:33:57.043Z,944.94
2018-06-23T09:34:57.055Z,945.00
2018-06-23T09:35:57.072Z,945.01
2018-06-23T09:36:57.169Z,945.00
2018-06-23T09:37:57.075Z,945.00
2018-06-23T09:38:57.084Z,944.97
2018-06-23T09:39:57.092Z,945.00
2018-06-23T09:40:57.100Z,944.91
2018-06-23T09:41:57.109Z,944.92
2018-06-23T09:42:57.118Z,944.96
2018-06-23T09:43:57.501Z,944.97
2018-06-23T09:44:57.135Z,944.88
2018-06-23T09:45:57.356Z,944.93
2018-06-23T09:46:57.180Z,944.88
2018-06-23T09:47:57.189Z,944.91
2018-06-23T09:48:57.198Z,944.87
2018-06-23T09:49:57.179Z,944.87
2018-06-23T09:50:57.189Z,944.91
2018-06-23T09:51:57.197Z,944.86
2018-06-23T09:52:57.203Z,944.86
2018-06-23T09:53:57.211Z,944.84
2018-06-23T09:54:57.217Z,944.86
2018-06-23T09:55:57.248Z,944.85
2018-06-23T09:56:57.230Z,944.85
2018-06-23T09:57:57.243Z,944.84
2018-06-23T09:58:57.243Z,944.80
2018-06-23T09:59:57.249Z,944.81
2018-06-23T10:00:57.252Z,944.84
2018-06-23T10:01:57.258Z,944.79
2018-06-23T10:02:57.264Z,944.79
2018-06-23T10:03:57.272Z,944.87
2018-06-23T10:04:57.273Z,944.79
2018-06-23T10:05:57.284Z,944.76
2018-06-23T10:06:57.285Z,944.73
2018-06-23T10:07:57.292Z,944.77
2018-06-23T10:08:57.296Z,944.75
2018-06-23T10:09:57.303Z,944.73
2018-06-23T10:10:57.305Z,944.76
2018-06-23T10:11:57.310Z,944.77
2018-06-23T10:12:57.359Z,944.74
2018-06-23T10:13:57.319Z,944.73
2018-06-23T10:14:57.324Z,944.72
2018-06-23T10:15:57.329Z,944.81
2018-06-23T10:16:57.403Z,944.81
2018-06-23T10:17:57.337Z,944.75
2018-06-23T10:18:57.342Z,944.71
2018-06-23T10:19:57.347Z,944.76
2018-06-23T10:20:59.374Z,944.81
2018-06-23T10:21:57.358Z,944.76
2018-06-23T10:22:57.363Z,944.74
2018-06-23T10:23:57.369Z,944.73
2018-06-23T10:24:57.378Z,944.74
2018-06-23T10:25:57.380Z,944.72
2018-06-23T10:26:57.388Z,944.66
2018-06-23T10:27:57.395Z,944.64
2018-06-23T10:28:57.400Z,944.65
2018-06-23T10:29:57.407Z,944.64
2018-06-23T10:30:57.415Z,944.61
2018-06-23T10:31:57.421Z,944.58
2018-06-23T10:32:57.427Z,944.52
2018-06-23T10:33:57.440Z,944.55
2018-06-23T10:34:57.444Z,944.53
2018-06-23T10:35:57.451Z,944.53
2018-06-23T10:36:57.457Z,944.54
2018-06-23T10:37:57.464Z,944.51
2018-06-23T10:38:57.474Z,944.50
2018-06-23T10:39:57.541Z,944.47
2018-06-23T10:40:57.488Z,944.46
2018-06-23T10:41:57.496Z,944.45
2018-06-23T10:42:57.505Z,944.45
2018-06-23T10:43:57.513Z,944.45
2018-06-23T10:44:57.516Z,944.46
2018-06-23T10:45:57.524Z,944.46
2018-06-23T10:46:57.531Z,944.43
2018-06-23T10:47:57.805Z,944.45
2018-06-23T10:48:57.543Z,944.43
2018-06-23T10:49:57.549Z,944.41
2018-06-23T10:50:57.556Z,944.41
2018-06-23T10:51:57.563Z,944.36
2018-06-23T10:52:57.567Z,944.39
2018-06-23T10:53:57.573Z,944.40
2018-06-23T10:54:57.579Z,944.39
2018-06-23T10:55:57.586Z,944.37
2018-06-23T10:56:57.591Z,944.38
2018-06-23T10:57:57.594Z,944.40
2018-06-23T10:58:57.600Z,944.36
2018-06-23T10:59:57.606Z,944.37
2018-06-23T11:00:57.625Z,944.39
2018-06-23T11:01:57.617Z,944.39
2018-06-23T11:02:57.629Z,944.39
2018-06-23T11:03:57.630Z,944.36
2018-06-23T11:04:57.876Z,944.38
2018-06-23T11:05:57.642Z,944.31
2018-06-23T11:06:57.648Z,944.38
2018-06-23T11:07:57.655Z,944.38
2018-06-23T11:08:57.660Z,944.37
2018-06-23T11:09:57.666Z,944.39
2018-06-23T11:10:57.672Z,944.38
2018-06-23T11:11:57.681Z,944.37
2018-06-23T11:12:57.684Z,944.37
2018-06-23T11:13:57.740Z,944.36
2018-06-23T11:14:57.696Z,944.33
2018-06-23T11:15:57.705Z,944.34
2018-06-23T11:16:57.707Z,944.28
2018-06-23T11:17:57.712Z,944.30
2018-06-23T11:18:57.716Z,944.35
2018-06-23T11:19:57.722Z,944.31
2018-06-23T11:20:57.729Z,944.31
2018-06-23T11:21:57.733Z,944.30
2018-06-23T11:22:57.742Z,944.32
2018-06-23T11:23:57.743Z,944.37
2018-06-23T11:24:57.748Z,944.34
2018-06-23T11:25:57.767Z,944.32
2018-06-23T11:26:57.760Z,944.32
2018-06-23T11:27:57.769Z,944.34
2018-06-23T11:28:57.772Z,944.32
2018-06-23T11:29:57.776Z,944.34
2018-06-23T11:30:57.783Z,944.30
2018-06-23T11:31:57.788Z,944.30
2018-06-23T11:32:57.793Z,944.28
2018-06-23T11:33:57.798Z,944.30
2018-06-23T11:34:57.804Z,944.29
2018-06-23T11:35:57.808Z,944.28
2018-06-23T11:36:57.817Z,944.27
2018-06-23T11:37:57.818Z,944.26
2018-06-23T11:38:57.823Z,944.32
2018-06-23T11:39:57.828Z,944.33
2018-06-23T11:40:57.833Z,944.30
2018-06-23T11:41:57.838Z,944.29
2018-06-23T11:42:57.847Z,944.29
2018-06-23T11:43:57.928Z,944.27
2018-06-23T11:44:57.852Z,944.20
2018-06-23T11:45:57.858Z,944.24
2018-06-23T11:46:57.868Z,944.24
2018-06-23T11:47:57.868Z,944.25
2018-06-23T11:48:57.873Z,944.22
2018-06-23T11:49:57.877Z,944.18
2018-06-23T11:50:57.882Z,944.22
2018-06-23T11:51:57.886Z,944.19
2018-06-23T11:52:57.911Z,944.20
2018-06-23T11:53:57.896Z,944.19
2018-06-23T11:54:57.904Z,944.17
2018-06-23T11:55:57.906Z,944.15
2018-06-23T11:56:57.948Z,944.15
2018-06-23T11:57:57.914Z,944.15
2018-06-23T11:58:57.919Z,944.11
2018-06-23T11:59:57.922Z,944.10
2018-06-23T12:00:57.933Z,944.19
2018-06-23T12:01:57.930Z,944.15
2018-06-23T12:02:57.934Z,944.15
2018-06-23T12:03:57.941Z,944.14
2018-06-23T12:04:57.943Z,944.14
2018-06-23T12:05:57.953Z,944.13
2018-06-23T12:06:57.952Z,944.09
2018-06-23T12:07:57.968Z,944.12
2018-06-23T12:08:57.958Z,944.11
2018-06-23T12:09:58.514Z,944.10
2018-06-23T12:10:57.971Z,944.06
2018-06-23T12:11:57.974Z,944.09
2018-06-23T12:12:57.974Z,944.06
2018-06-23T12:13:57.980Z,944.06
2018-06-23T12:14:57.982Z,944.07
2018-06-23T12:15:57.986Z,944.08
2018-06-23T12:16:57.992Z,944.04
2018-06-23T12:17:57.995Z,944.03
2018-06-23T12:18:57.999Z,944.04
2018-06-23T12:19:58.005Z,944.04
2018-06-23T12:20:58.006Z,944.06
2018-06-23T12:21:58.009Z,944.02
2018-06-23T12:22:58.015Z,943.99
2018-06-23T12:23:58.026Z,943.98
2018-06-23T12:24:58.022Z,943.97
2018-06-23T12:25:58.057Z,943.96
2018-06-23T12:26:58.030Z,943.94
2018-06-23T12:27:58.037Z,943.93
2018-06-23T12:28:58.037Z,943.90